sensor_id;sensor_type;location;lat;lon;timestamp;P1;durP1;ratioP1;P2;durP2;ratioP2
9974;SDS011;5028;50.974;4.968;2023-01-08T00:01:35;5.13;;;2.70;;
9974;SDS011;5028;50.974;4.968;2023-01-08T00:04:10;4.90;;;2.70;;
9974;SDS011;5028;50.974;4.968;2023-01-08T00:06:38;4.23;;;2.17;;
9974;SDS011;5028;50.974;4.968;2023-01-08T00:09:20;5.03;;;2.27;;
9974;SDS011;5028;50.974;4.968;2023-01-08T00:11:48;3.30;;;2.40;;
9974;SDS011;5028;50.974;4.968;2023-01-08T00:14:25;4.13;;;2.20;;
9974;SDS011;5028;50.974;4.968;2023-01-08T00:16:53;5.10;;;2.30;;
9974;SDS011;5028;50.974;4.968;2023-01-08T00:19:28;4.87;;;2.27;;
9974;SDS011;5028;50.974;4.968;2023-01-08T00:21:56;6.37;;;2.50;;
9974;SDS011;5028;50.974;4.968;2023-01-08T00:24:31;5.40;;;2.67;;
9974;SDS011;5028;50.974;4.968;2023-01-08T00:26:59;2.77;;;2.43;;
9974;SDS011;5028;50.974;4.968;2023-01-08T00:29:35;2.77;;;2.40;;
9974;SDS011;5028;50.974;4.968;2023-01-08T00:32:04;4.23;;;2.37;;
9974;SDS011;5028;50.974;4.968;2023-01-08T00:34:38;3.70;;;2.40;;
9974;SDS011;5028;50.974;4.968;2023-01-08T00:37:06;3.53;;;2.60;;
9974;SDS011;5028;50.974;4.968;2023-01-08T00:39:41;3.30;;;2.30;;
9974;SDS011;5028;50.974;4.968;2023-01-08T00:42:09;3.90;;;2.60;;
9974;SDS011;5028;50.974;4.968;2023-01-08T00:44:47;5.53;;;2.53;;
9974;SDS011;5028;50.974;4.968;2023-01-08T00:47:15;4.63;;;2.30;;
9974;SDS011;5028;50.974;4.968;2023-01-08T00:49:49;6.33;;;2.67;;
9974;SDS011;5028;50.974;4.968;2023-01-08T00:52:17;5.80;;;2.97;;
9974;SDS011;5028;50.974;4.968;2023-01-08T00:54:52;5.57;;;2.87;;
9974;SDS011;5028;50.974;4.968;2023-01-08T00:57:20;4.20;;;3.07;;
9974;SDS011;5028;50.974;4.968;2023-01-08T00:59:57;4.33;;;2.70;;
9974;SDS011;5028;50.974;4.968;2023-01-08T01:02:25;4.90;;;2.63;;
9974;SDS011;5028;50.974;4.968;2023-01-08T01:05:07;4.17;;;2.30;;
9974;SDS011;5028;50.974;4.968;2023-01-08T01:07:43;6.83;;;2.70;;
9974;SDS011;5028;50.974;4.968;2023-01-08T01:10:18;3.40;;;2.80;;
9974;SDS011;5028;50.974;4.968;2023-01-08T01:12:46;4.30;;;2.90;;
9974;SDS011;5028;50.974;4.968;2023-01-08T01:15:23;4.60;;;2.70;;
9974;SDS011;5028;50.974;4.968;2023-01-08T01:17:51;3.60;;;2.47;;
9974;SDS011;5028;50.974;4.968;2023-01-08T01:20:25;4.10;;;2.63;;
9974;SDS011;5028;50.974;4.968;2023-01-08T01:22:53;3.23;;;2.27;;
9974;SDS011;5028;50.974;4.968;2023-01-08T01:25:28;4.37;;;2.63;;
9974;SDS011;5028;50.974;4.968;2023-01-08T01:27:56;4.93;;;2.30;;
9974;SDS011;5028;50.974;4.968;2023-01-08T01:30:33;3.77;;;2.40;;
9974;SDS011;5028;50.974;4.968;2023-01-08T01:33:01;6.17;;;2.60;;
9974;SDS011;5028;50.974;4.968;2023-01-08T01:35:35;5.33;;;2.70;;
9974;SDS011;5028;50.974;4.968;2023-01-08T01:38:04;4.63;;;2.60;;
9974;SDS011;5028;50.974;4.968;2023-01-08T01:40:40;6.90;;;2.93;;
9974;SDS011;5028;50.974;4.968;2023-01-08T01:43:09;3.50;;;2.17;;
9974;SDS011;5028;50.974;4.968;2023-01-08T01:45:48;3.90;;;1.33;;
9974;SDS011;5028;50.974;4.968;2023-01-08T01:48:16;1.80;;;1.07;;
9974;SDS011;5028;50.974;4.968;2023-01-08T01:50:51;3.87;;;1.10;;
9974;SDS011;5028;50.974;4.968;2023-01-08T01:53:21;5.87;;;1.40;;
9974;SDS011;5028;50.974;4.968;2023-01-08T01:55:57;2.93;;;1.40;;
9974;SDS011;5028;50.974;4.968;2023-01-08T01:58:27;3.77;;;1.33;;
9974;SDS011;5028;50.974;4.968;2023-01-08T02:01:05;7.87;;;1.40;;
9974;SDS011;5028;50.974;4.968;2023-01-08T02:03:36;1.97;;;1.20;;
9974;SDS011;5028;50.974;4.968;2023-01-08T02:06:22;2.83;;;1.20;;
9974;SDS011;5028;50.974;4.968;2023-01-08T02:09:00;4.13;;;1.30;;
9974;SDS011;5028;50.974;4.968;2023-01-08T02:11:40;3.73;;;1.23;;
9974;SDS011;5028;50.974;4.968;2023-01-08T02:14:15;2.90;;;1.00;;
9974;SDS011;5028;50.974;4.968;2023-01-08T02:16:58;3.67;;;1.37;;
9974;SDS011;5028;50.974;4.968;2023-01-08T02:19:34;4.37;;;1.50;;
9974;SDS011;5028;50.974;4.968;2023-01-08T02:22:14;3.30;;;1.43;;
9974;SDS011;5028;50.974;4.968;2023-01-08T02:24:52;5.27;;;1.30;;
9974;SDS011;5028;50.974;4.968;2023-01-08T02:27:30;4.83;;;1.53;;
9974;SDS011;5028;50.974;4.968;2023-01-08T02:30:02;3.67;;;1.20;;
9974;SDS011;5028;50.974;4.968;2023-01-08T02:32:39;5.87;;;1.67;;
9974;SDS011;5028;50.974;4.968;2023-01-08T02:35:09;5.07;;;1.30;;
9974;SDS011;5028;50.974;4.968;2023-01-08T02:37:44;3.87;;;1.50;;
9974;SDS011;5028;50.974;4.968;2023-01-08T02:40:14;6.50;;;2.10;;
9974;SDS011;5028;50.974;4.968;2023-01-08T02:43:00;5.53;;;1.50;;
9974;SDS011;5028;50.974;4.968;2023-01-08T02:45:37;3.57;;;1.30;;
9974;SDS011;5028;50.974;4.968;2023-01-08T02:48:21;4.73;;;1.57;;
9974;SDS011;5028;50.974;4.968;2023-01-08T02:50:58;4.20;;;1.33;;
9974;SDS011;5028;50.974;4.968;2023-01-08T02:53:40;3.47;;;1.53;;
9974;SDS011;5028;50.974;4.968;2023-01-08T02:56:13;3.40;;;1.57;;
9974;SDS011;5028;50.974;4.968;2023-01-08T02:58:52;4.17;;;1.67;;
9974;SDS011;5028;50.974;4.968;2023-01-08T03:01:22;3.60;;;1.60;;
9974;SDS011;5028;50.974;4.968;2023-01-08T03:03:59;2.67;;;1.50;;
9974;SDS011;5028;50.974;4.968;2023-01-08T03:06:44;2.53;;;1.50;;
9974;SDS011;5028;50.974;4.968;2023-01-08T03:09:19;3.63;;;1.70;;
9974;SDS011;5028;50.974;4.968;2023-01-08T03:11:50;3.27;;;1.80;;
9974;SDS011;5028;50.974;4.968;2023-01-08T03:14:35;3.43;;;1.60;;
9974;SDS011;5028;50.974;4.968;2023-01-08T03:17:12;3.20;;;1.63;;
9974;SDS011;5028;50.974;4.968;2023-01-08T03:19:54;2.67;;;2.03;;
9974;SDS011;5028;50.974;4.968;2023-01-08T03:22:26;3.47;;;1.73;;
9974;SDS011;5028;50.974;4.968;2023-01-08T03:25:05;5.10;;;2.30;;
9974;SDS011;5028;50.974;4.968;2023-01-08T03:27:36;3.53;;;2.23;;
9974;SDS011;5028;50.974;4.968;2023-01-08T03:30:16;3.77;;;2.20;;
9974;SDS011;5028;50.974;4.968;2023-01-08T03:32:46;4.10;;;2.23;;
9974;SDS011;5028;50.974;4.968;2023-01-08T03:35:24;4.23;;;2.03;;
9974;SDS011;5028;50.974;4.968;2023-01-08T03:37:55;3.50;;;2.13;;
9974;SDS011;5028;50.974;4.968;2023-01-08T03:40:34;3.17;;;1.70;;
9974;SDS011;5028;50.974;4.968;2023-01-08T03:43:07;2.63;;;1.37;;
9974;SDS011;5028;50.974;4.968;2023-01-08T03:45:45;2.60;;;1.37;;
9974;SDS011;5028;50.974;4.968;2023-01-08T03:48:17;3.87;;;1.60;;
9974;SDS011;5028;50.974;4.968;2023-01-08T03:50:53;3.20;;;1.40;;
9974;SDS011;5028;50.974;4.968;2023-01-08T03:53:21;2.40;;;1.40;;
9974;SDS011;5028;50.974;4.968;2023-01-08T03:55:56;2.70;;;1.57;;
9974;SDS011;5028;50.974;4.968;2023-01-08T03:58:25;2.87;;;1.40;;
9974;SDS011;5028;50.974;4.968;2023-01-08T04:01:01;3.03;;;1.00;;
9974;SDS011;5028;50.974;4.968;2023-01-08T04:03:29;2.23;;;1.20;;
9974;SDS011;5028;50.974;4.968;2023-01-08T04:06:05;2.00;;;1.00;;
9974;SDS011;5028;50.974;4.968;2023-01-08T04:08:46;2.27;;;1.20;;
9974;SDS011;5028;50.974;4.968;2023-01-08T04:11:15;2.53;;;1.10;;
9974;SDS011;5028;50.974;4.968;2023-01-08T04:13:49;1.63;;;1.10;;
9974;SDS011;5028;50.974;4.968;2023-01-08T04:16:19;5.03;;;1.30;;
9974;SDS011;5028;50.974;4.968;2023-01-08T04:18:48;2.80;;;1.40;;
9974;SDS011;5028;50.974;4.968;2023-01-08T04:21:23;3.10;;;1.37;;
9974;SDS011;5028;50.974;4.968;2023-01-08T04:23:51;4.33;;;1.13;;
9974;SDS011;5028;50.974;4.968;2023-01-08T04:26:26;1.63;;;1.00;;
9974;SDS011;5028;50.974;4.968;2023-01-08T04:28:55;3.27;;;1.20;;
9974;SDS011;5028;50.974;4.968;2023-01-08T04:31:31;3.20;;;1.13;;
9974;SDS011;5028;50.974;4.968;2023-01-08T04:33:59;2.37;;;0.90;;
9974;SDS011;5028;50.974;4.968;2023-01-08T04:36:34;4.90;;;1.20;;
9974;SDS011;5028;50.974;4.968;2023-01-08T04:39:03;4.03;;;1.17;;
9974;SDS011;5028;50.974;4.968;2023-01-08T04:41:39;4.90;;;1.10;;
9974;SDS011;5028;50.974;4.968;2023-01-08T04:44:07;4.23;;;1.20;;
9974;SDS011;5028;50.974;4.968;2023-01-08T04:46:44;3.60;;;1.30;;
9974;SDS011;5028;50.974;4.968;2023-01-08T04:49:13;4.80;;;1.43;;
9974;SDS011;5028;50.974;4.968;2023-01-08T04:51:47;4.10;;;1.23;;
9974;SDS011;5028;50.974;4.968;2023-01-08T04:54:16;4.30;;;1.30;;
9974;SDS011;5028;50.974;4.968;2023-01-08T04:56:51;5.80;;;1.33;;
9974;SDS011;5028;50.974;4.968;2023-01-08T04:59:19;5.63;;;1.47;;
9974;SDS011;5028;50.974;4.968;2023-01-08T05:01:56;4.40;;;1.43;;
9974;SDS011;5028;50.974;4.968;2023-01-08T05:04:25;5.40;;;1.73;;
9974;SDS011;5028;50.974;4.968;2023-01-08T05:07:00;6.47;;;1.67;;
9974;SDS011;5028;50.974;4.968;2023-01-08T05:09:28;5.77;;;1.70;;
9974;SDS011;5028;50.974;4.968;2023-01-08T05:12:03;5.30;;;1.50;;
9974;SDS011;5028;50.974;4.968;2023-01-08T05:14:31;4.73;;;1.60;;
9974;SDS011;5028;50.974;4.968;2023-01-08T05:17:08;5.23;;;1.33;;
9974;SDS011;5028;50.974;4.968;2023-01-08T05:19:36;3.60;;;1.40;;
9974;SDS011;5028;50.974;4.968;2023-01-08T05:22:11;4.43;;;1.37;;
9974;SDS011;5028;50.974;4.968;2023-01-08T05:24:40;5.43;;;1.70;;
9974;SDS011;5028;50.974;4.968;2023-01-08T05:27:15;5.90;;;2.10;;
9974;SDS011;5028;50.974;4.968;2023-01-08T05:29:43;4.37;;;1.53;;
9974;SDS011;5028;50.974;4.968;2023-01-08T05:32:19;5.13;;;1.40;;
9974;SDS011;5028;50.974;4.968;2023-01-08T05:34:47;4.77;;;1.40;;
9974;SDS011;5028;50.974;4.968;2023-01-08T05:37:22;5.30;;;1.50;;
9974;SDS011;5028;50.974;4.968;2023-01-08T05:39:51;4.40;;;1.50;;
9974;SDS011;5028;50.974;4.968;2023-01-08T05:42:25;4.20;;;1.63;;
9974;SDS011;5028;50.974;4.968;2023-01-08T05:44:54;4.93;;;1.37;;
9974;SDS011;5028;50.974;4.968;2023-01-08T05:47:30;5.03;;;1.53;;
9974;SDS011;5028;50.974;4.968;2023-01-08T05:49:59;3.07;;;1.57;;
9974;SDS011;5028;50.974;4.968;2023-01-08T05:52:34;5.43;;;1.57;;
9974;SDS011;5028;50.974;4.968;2023-01-08T05:55:02;5.40;;;1.50;;
9974;SDS011;5028;50.974;4.968;2023-01-08T05:57:37;5.30;;;1.90;;
9974;SDS011;5028;50.974;4.968;2023-01-08T06:00:07;5.70;;;1.77;;
9974;SDS011;5028;50.974;4.968;2023-01-08T06:02:46;6.47;;;1.50;;
9974;SDS011;5028;50.974;4.968;2023-01-08T06:05:15;5.17;;;1.53;;
9974;SDS011;5028;50.974;4.968;2023-01-08T06:07:50;5.93;;;1.40;;
9974;SDS011;5028;50.974;4.968;2023-01-08T06:10:18;5.20;;;1.90;;
9974;SDS011;5028;50.974;4.968;2023-01-08T06:12:52;5.97;;;2.00;;
9974;SDS011;5028;50.974;4.968;2023-01-08T06:15:21;5.03;;;1.63;;
9974;SDS011;5028;50.974;4.968;2023-01-08T06:18:00;5.30;;;1.53;;
9974;SDS011;5028;50.974;4.968;2023-01-08T06:20:29;5.37;;;2.00;;
9974;SDS011;5028;50.974;4.968;2023-01-08T06:23:03;4.50;;;1.43;;
9974;SDS011;5028;50.974;4.968;2023-01-08T06:25:34;7.83;;;1.73;;
9974;SDS011;5028;50.974;4.968;2023-01-08T06:28:09;3.27;;;1.60;;
9974;SDS011;5028;50.974;4.968;2023-01-08T06:30:37;6.03;;;1.70;;
9974;SDS011;5028;50.974;4.968;2023-01-08T06:33:13;7.33;;;1.80;;
9974;SDS011;5028;50.974;4.968;2023-01-08T06:35:46;6.50;;;1.43;;
9974;SDS011;5028;50.974;4.968;2023-01-08T06:38:21;7.40;;;2.17;;
9974;SDS011;5028;50.974;4.968;2023-01-08T06:40:49;5.63;;;1.70;;
9974;SDS011;5028;50.974;4.968;2023-01-08T06:43:23;7.00;;;1.70;;
9974;SDS011;5028;50.974;4.968;2023-01-08T06:45:52;6.90;;;1.77;;
9974;SDS011;5028;50.974;4.968;2023-01-08T06:48:31;7.17;;;2.37;;
9974;SDS011;5028;50.974;4.968;2023-01-08T06:50:59;8.97;;;2.03;;
9974;SDS011;5028;50.974;4.968;2023-01-08T06:53:35;7.87;;;1.90;;
9974;SDS011;5028;50.974;4.968;2023-01-08T06:56:04;6.57;;;1.60;;
9974;SDS011;5028;50.974;4.968;2023-01-08T06:58:41;6.67;;;1.67;;
9974;SDS011;5028;50.974;4.968;2023-01-08T07:01:11;6.53;;;1.87;;
9974;SDS011;5028;50.974;4.968;2023-01-08T07:03:56;4.77;;;1.77;;
9974;SDS011;5028;50.974;4.968;2023-01-08T07:06:38;6.53;;;2.00;;
9974;SDS011;5028;50.974;4.968;2023-01-08T07:09:13;6.57;;;1.80;;
9974;SDS011;5028;50.974;4.968;2023-01-08T07:11:41;5.17;;;1.90;;
9974;SDS011;5028;50.974;4.968;2023-01-08T07:14:17;4.33;;;1.93;;
9974;SDS011;5028;50.974;4.968;2023-01-08T07:16:45;4.93;;;1.90;;
9974;SDS011;5028;50.974;4.968;2023-01-08T07:19:22;9.73;;;1.97;;
9974;SDS011;5028;50.974;4.968;2023-01-08T07:21:50;7.33;;;1.73;;
9974;SDS011;5028;50.974;4.968;2023-01-08T07:24:26;5.37;;;1.50;;
9974;SDS011;5028;50.974;4.968;2023-01-08T07:26:54;5.83;;;2.00;;
9974;SDS011;5028;50.974;4.968;2023-01-08T07:29:30;8.23;;;1.77;;
9974;SDS011;5028;50.974;4.968;2023-01-08T07:31:58;6.43;;;2.10;;
9974;SDS011;5028;50.974;4.968;2023-01-08T07:34:34;4.07;;;1.63;;
9974;SDS011;5028;50.974;4.968;2023-01-08T07:37:02;7.30;;;1.80;;
9974;SDS011;5028;50.974;4.968;2023-01-08T07:39:38;8.13;;;2.00;;
9974;SDS011;5028;50.974;4.968;2023-01-08T07:42:06;5.60;;;2.23;;
9974;SDS011;5028;50.974;4.968;2023-01-08T07:44:41;9.97;;;2.27;;
9974;SDS011;5028;50.974;4.968;2023-01-08T07:47:09;9.27;;;2.20;;
9974;SDS011;5028;50.974;4.968;2023-01-08T07:49:45;7.53;;;2.13;;
9974;SDS011;5028;50.974;4.968;2023-01-08T07:52:14;7.13;;;2.10;;
9974;SDS011;5028;50.974;4.968;2023-01-08T07:54:49;6.03;;;2.03;;
9974;SDS011;5028;50.974;4.968;2023-01-08T07:57:17;7.60;;;2.10;;
9974;SDS011;5028;50.974;4.968;2023-01-08T07:59:53;6.53;;;1.90;;
9974;SDS011;5028;50.974;4.968;2023-01-08T08:02:21;7.60;;;2.43;;
9974;SDS011;5028;50.974;4.968;2023-01-08T08:05:06;11.07;;;2.47;;
9974;SDS011;5028;50.974;4.968;2023-01-08T08:07:42;8.70;;;2.40;;
9974;SDS011;5028;50.974;4.968;2023-01-08T08:10:10;5.53;;;2.00;;
9974;SDS011;5028;50.974;4.968;2023-01-08T08:12:46;4.60;;;1.90;;
9974;SDS011;5028;50.974;4.968;2023-01-08T08:15:14;5.20;;;2.33;;
9974;SDS011;5028;50.974;4.968;2023-01-08T08:17:49;10.07;;;2.20;;
9974;SDS011;5028;50.974;4.968;2023-01-08T08:20:19;9.60;;;2.53;;
9974;SDS011;5028;50.974;4.968;2023-01-08T08:22:58;6.40;;;1.90;;
9974;SDS011;5028;50.974;4.968;2023-01-08T08:25:28;8.03;;;2.07;;
9974;SDS011;5028;50.974;4.968;2023-01-08T08:28:04;9.87;;;2.07;;
9974;SDS011;5028;50.974;4.968;2023-01-08T08:30:33;6.20;;;1.93;;
9974;SDS011;5028;50.974;4.968;2023-01-08T08:33:09;7.93;;;2.33;;
9974;SDS011;5028;50.974;4.968;2023-01-08T08:35:39;9.23;;;2.43;;
9974;SDS011;5028;50.974;4.968;2023-01-08T08:38:21;6.37;;;1.97;;
9974;SDS011;5028;50.974;4.968;2023-01-08T08:40:50;9.97;;;2.20;;
9974;SDS011;5028;50.974;4.968;2023-01-08T08:43:25;7.20;;;2.30;;
9974;SDS011;5028;50.974;4.968;2023-01-08T08:45:54;7.33;;;2.40;;
9974;SDS011;5028;50.974;4.968;2023-01-08T08:48:29;7.17;;;2.17;;
9974;SDS011;5028;50.974;4.968;2023-01-08T08:50:59;6.20;;;2.20;;
9974;SDS011;5028;50.974;4.968;2023-01-08T08:53:34;8.63;;;2.33;;
9974;SDS011;5028;50.974;4.968;2023-01-08T08:56:02;8.23;;;2.30;;
9974;SDS011;5028;50.974;4.968;2023-01-08T08:58:38;7.00;;;2.10;;
9974;SDS011;5028;50.974;4.968;2023-01-08T09:01:07;5.07;;;1.87;;
9974;SDS011;5028;50.974;4.968;2023-01-08T09:03:42;5.90;;;2.20;;
9974;SDS011;5028;50.974;4.968;2023-01-08T09:06:15;5.33;;;1.87;;
9974;SDS011;5028;50.974;4.968;2023-01-08T09:08:59;5.87;;;1.50;;
9974;SDS011;5028;50.974;4.968;2023-01-08T09:11:27;6.03;;;1.90;;
9974;SDS011;5028;50.974;4.968;2023-01-08T09:14:02;3.27;;;1.20;;
9974;SDS011;5028;50.974;4.968;2023-01-08T09:16:30;2.93;;;1.30;;
9974;SDS011;5028;50.974;4.968;2023-01-08T09:19:05;1.90;;;1.13;;
9974;SDS011;5028;50.974;4.968;2023-01-08T09:21:35;1.90;;;1.00;;
9974;SDS011;5028;50.974;4.968;2023-01-08T09:24:10;2.03;;;0.90;;
9974;SDS011;5028;50.974;4.968;2023-01-08T09:26:38;1.77;;;0.80;;
9974;SDS011;5028;50.974;4.968;2023-01-08T09:29:14;1.50;;;0.97;;
9974;SDS011;5028;50.974;4.968;2023-01-08T09:31:42;1.13;;;0.87;;
9974;SDS011;5028;50.974;4.968;2023-01-08T09:34:18;0.60;;;0.50;;
9974;SDS011;5028;50.974;4.968;2023-01-08T09:36:48;2.37;;;0.80;;
9974;SDS011;5028;50.974;4.968;2023-01-08T09:39:24;1.00;;;0.70;;
9974;SDS011;5028;50.974;4.968;2023-01-08T09:41:53;0.60;;;0.60;;
9974;SDS011;5028;50.974;4.968;2023-01-08T09:44:32;1.27;;;0.70;;
9974;SDS011;5028;50.974;4.968;2023-01-08T09:47:04;0.63;;;0.63;;
9974;SDS011;5028;50.974;4.968;2023-01-08T09:49:41;1.43;;;0.67;;
9974;SDS011;5028;50.974;4.968;2023-01-08T09:52:14;1.17;;;0.60;;
9974;SDS011;5028;50.974;4.968;2023-01-08T09:54:53;0.73;;;0.60;;
9974;SDS011;5028;50.974;4.968;2023-01-08T09:57:21;1.50;;;0.90;;
9974;SDS011;5028;50.974;4.968;2023-01-08T09:59:56;1.37;;;0.80;;
9974;SDS011;5028;50.974;4.968;2023-01-08T10:02:25;1.27;;;0.73;;
9974;SDS011;5028;50.974;4.968;2023-01-08T10:05:10;0.70;;;0.70;;
9974;SDS011;5028;50.974;4.968;2023-01-08T10:07:55;2.43;;;1.00;;
9974;SDS011;5028;50.974;4.968;2023-01-08T10:10:30;1.30;;;0.90;;
9974;SDS011;5028;50.974;4.968;2023-01-08T10:12:59;1.00;;;0.73;;
9974;SDS011;5028;50.974;4.968;2023-01-08T10:15:34;1.67;;;0.90;;
9974;SDS011;5028;50.974;4.968;2023-01-08T10:18:03;2.10;;;0.80;;
9974;SDS011;5028;50.974;4.968;2023-01-08T10:20:39;1.10;;;1.00;;
9974;SDS011;5028;50.974;4.968;2023-01-08T10:23:10;1.20;;;0.90;;
9974;SDS011;5028;50.974;4.968;2023-01-08T10:25:48;1.40;;;0.93;;
9974;SDS011;5028;50.974;4.968;2023-01-08T10:28:19;1.60;;;1.00;;
9974;SDS011;5028;50.974;4.968;2023-01-08T10:30:57;2.33;;;1.10;;
9974;SDS011;5028;50.974;4.968;2023-01-08T10:33:35;2.67;;;1.20;;
9974;SDS011;5028;50.974;4.968;2023-01-08T10:36:14;1.10;;;1.00;;
9974;SDS011;5028;50.974;4.968;2023-01-08T10:38:48;2.10;;;1.10;;
9974;SDS011;5028;50.974;4.968;2023-01-08T10:41:28;2.03;;;1.23;;
9974;SDS011;5028;50.974;4.968;2023-01-08T10:43:58;3.90;;;1.30;;
9974;SDS011;5028;50.974;4.968;2023-01-08T10:46:35;1.63;;;1.07;;
9974;SDS011;5028;50.974;4.968;2023-01-08T10:49:11;1.70;;;1.10;;
9974;SDS011;5028;50.974;4.968;2023-01-08T10:51:50;2.50;;;1.20;;
9974;SDS011;5028;50.974;4.968;2023-01-08T10:54:33;1.87;;;1.20;;
9974;SDS011;5028;50.974;4.968;2023-01-08T10:57:17;1.93;;;1.10;;
9974;SDS011;5028;50.974;4.968;2023-01-08T10:59:48;1.57;;;1.00;;
9974;SDS011;5028;50.974;4.968;2023-01-08T11:02:32;2.30;;;1.10;;
9974;SDS011;5028;50.974;4.968;2023-01-08T11:05:11;2.07;;;1.10;;
9974;SDS011;5028;50.974;4.968;2023-01-08T11:07:54;3.27;;;1.23;;
9974;SDS011;5028;50.974;4.968;2023-01-08T11:10:28;2.83;;;1.00;;
9974;SDS011;5028;50.974;4.968;2023-01-08T11:13:04;1.70;;;1.40;;
9974;SDS011;5028;50.974;4.968;2023-01-08T11:15:36;2.23;;;1.00;;
9974;SDS011;5028;50.974;4.968;2023-01-08T11:18:17;3.13;;;1.10;;
9974;SDS011;5028;50.974;4.968;2023-01-08T11:20:48;2.23;;;1.40;;
9974;SDS011;5028;50.974;4.968;2023-01-08T11:23:23;3.70;;;1.10;;
9974;SDS011;5028;50.974;4.968;2023-01-08T11:25:58;2.97;;;1.20;;
9974;SDS011;5028;50.974;4.968;2023-01-08T11:28:41;3.13;;;1.37;;
9974;SDS011;5028;50.974;4.968;2023-01-08T11:31:16;3.03;;;1.30;;
9974;SDS011;5028;50.974;4.968;2023-01-08T11:34:05;3.17;;;1.33;;
9974;SDS011;5028;50.974;4.968;2023-01-08T11:36:43;3.70;;;1.43;;
9974;SDS011;5028;50.974;4.968;2023-01-08T11:39:23;3.20;;;1.20;;
9974;SDS011;5028;50.974;4.968;2023-01-08T11:45:11;6.00;;;1.37;;
9974;SDS011;5028;50.974;4.968;2023-01-08T11:47:50;2.47;;;1.10;;
9974;SDS011;5028;50.974;4.968;2023-01-08T11:50:40;2.30;;;1.03;;
9974;SDS011;5028;50.974;4.968;2023-01-08T11:53:21;4.10;;;1.20;;
9974;SDS011;5028;50.974;4.968;2023-01-08T11:56:06;3.23;;;1.50;;
9974;SDS011;5028;50.974;4.968;2023-01-08T12:01:45;5.90;;;1.43;;
9974;SDS011;5028;50.974;4.968;2023-01-08T12:04:50;2.90;;;1.33;;
9974;SDS011;5028;50.974;4.968;2023-01-08T12:08:02;2.83;;;1.27;;
9974;SDS011;5028;50.974;4.968;2023-01-08T12:10:44;2.63;;;1.27;;
9974;SDS011;5028;50.974;4.968;2023-01-08T12:13:37;4.80;;;1.23;;
9974;SDS011;5028;50.974;4.968;2023-01-08T12:16:28;5.70;;;1.30;;
9974;SDS011;5028;50.974;4.968;2023-01-08T12:22:09;4.97;;;1.30;;
9974;SDS011;5028;50.974;4.968;2023-01-08T12:25:02;3.67;;;1.40;;
9974;SDS011;5028;50.974;4.968;2023-01-08T12:28:06;2.87;;;1.30;;
9974;SDS011;5028;50.974;4.968;2023-01-08T12:30:45;3.33;;;1.57;;
9974;SDS011;5028;50.974;4.968;2023-01-08T12:33:34;5.67;;;1.60;;
9974;SDS011;5028;50.974;4.968;2023-01-08T12:36:08;3.17;;;1.63;;
9974;SDS011;5028;50.974;4.968;2023-01-08T12:38:48;4.03;;;1.67;;
9974;SDS011;5028;50.974;4.968;2023-01-08T12:41:21;5.27;;;1.40;;
9974;SDS011;5028;50.974;4.968;2023-01-08T12:43:59;4.10;;;1.47;;
9974;SDS011;5028;50.974;4.968;2023-01-08T12:46:30;3.33;;;1.27;;
9974;SDS011;5028;50.974;4.968;2023-01-08T12:49:10;5.00;;;1.30;;
9974;SDS011;5028;50.974;4.968;2023-01-08T12:51:45;3.80;;;1.73;;
9974;SDS011;5028;50.974;4.968;2023-01-08T12:54:28;3.47;;;1.50;;
9974;SDS011;5028;50.974;4.968;2023-01-08T12:57:04;2.77;;;1.30;;
9974;SDS011;5028;50.974;4.968;2023-01-08T12:59:49;3.33;;;1.33;;
9974;SDS011;5028;50.974;4.968;2023-01-08T13:02:26;3.73;;;1.50;;
9974;SDS011;5028;50.974;4.968;2023-01-08T13:05:24;4.60;;;1.30;;
9974;SDS011;5028;50.974;4.968;2023-01-08T13:08:21;5.67;;;1.70;;
9974;SDS011;5028;50.974;4.968;2023-01-08T13:11:01;4.30;;;1.30;;
9974;SDS011;5028;50.974;4.968;2023-01-08T13:13:34;3.17;;;1.20;;
9974;SDS011;5028;50.974;4.968;2023-01-08T13:16:17;4.83;;;1.67;;
9974;SDS011;5028;50.974;4.968;2023-01-08T13:18:50;5.10;;;1.57;;
9974;SDS011;5028;50.974;4.968;2023-01-08T13:21:29;3.60;;;1.50;;
9974;SDS011;5028;50.974;4.968;2023-01-08T13:24:04;3.93;;;1.60;;
9974;SDS011;5028;50.974;4.968;2023-01-08T13:26:54;5.20;;;1.43;;
9974;SDS011;5028;50.974;4.968;2023-01-08T13:29:24;4.73;;;1.57;;
9974;SDS011;5028;50.974;4.968;2023-01-08T13:32:40;6.10;;;1.70;;
9974;SDS011;5028;50.974;4.968;2023-01-08T13:35:20;5.87;;;1.70;;
9974;SDS011;5028;50.974;4.968;2023-01-08T13:38:11;3.97;;;1.67;;
9974;SDS011;5028;50.974;4.968;2023-01-08T13:40:52;5.57;;;1.60;;
9974;SDS011;5028;50.974;4.968;2023-01-08T13:43:29;4.47;;;1.60;;
9974;SDS011;5028;50.974;4.968;2023-01-08T13:46:12;4.57;;;1.57;;
9974;SDS011;5028;50.974;4.968;2023-01-08T13:48:53;3.43;;;1.67;;
9974;SDS011;5028;50.974;4.968;2023-01-08T13:51:28;4.70;;;1.63;;
9974;SDS011;5028;50.974;4.968;2023-01-08T13:54:14;4.03;;;1.47;;
9974;SDS011;5028;50.974;4.968;2023-01-08T13:56:51;3.80;;;1.50;;
9974;SDS011;5028;50.974;4.968;2023-01-08T13:59:38;4.87;;;1.30;;
9974;SDS011;5028;50.974;4.968;2023-01-08T14:02:22;4.77;;;1.40;;
9974;SDS011;5028;50.974;4.968;2023-01-08T14:04:54;6.07;;;1.50;;
9974;SDS011;5028;50.974;4.968;2023-01-08T14:07:43;4.00;;;1.30;;
9974;SDS011;5028;50.974;4.968;2023-01-08T14:10:14;4.13;;;1.73;;
9974;SDS011;5028;50.974;4.968;2023-01-08T14:12:49;4.53;;;1.43;;
9974;SDS011;5028;50.974;4.968;2023-01-08T14:15:22;6.13;;;1.40;;
9974;SDS011;5028;50.974;4.968;2023-01-08T14:18:00;5.13;;;1.50;;
9974;SDS011;5028;50.974;4.968;2023-01-08T14:20:32;4.80;;;1.50;;
9974;SDS011;5028;50.974;4.968;2023-01-08T14:23:09;4.20;;;1.43;;
9974;SDS011;5028;50.974;4.968;2023-01-08T14:25:41;5.43;;;1.63;;
9974;SDS011;5028;50.974;4.968;2023-01-08T14:28:17;3.13;;;1.50;;
9974;SDS011;5028;50.974;4.968;2023-01-08T14:30:48;6.23;;;1.77;;
9974;SDS011;5028;50.974;4.968;2023-01-08T14:33:23;3.77;;;1.77;;
9974;SDS011;5028;50.974;4.968;2023-01-08T14:35:57;6.53;;;2.50;;
9974;SDS011;5028;50.974;4.968;2023-01-08T14:38:34;4.13;;;1.70;;
9974;SDS011;5028;50.974;4.968;2023-01-08T14:41:05;3.80;;;1.80;;
9974;SDS011;5028;50.974;4.968;2023-01-08T14:43:43;5.33;;;1.30;;
9974;SDS011;5028;50.974;4.968;2023-01-08T14:46:17;4.73;;;1.50;;
9974;SDS011;5028;50.974;4.968;2023-01-08T14:48:55;3.93;;;1.60;;
9974;SDS011;5028;50.974;4.968;2023-01-08T14:51:25;2.83;;;1.40;;
9974;SDS011;5028;50.974;4.968;2023-01-08T14:54:02;3.63;;;1.47;;
9974;SDS011;5028;50.974;4.968;2023-01-08T14:56:35;4.00;;;1.30;;
9974;SDS011;5028;50.974;4.968;2023-01-08T14:59:10;3.97;;;1.40;;
9974;SDS011;5028;50.974;4.968;2023-01-08T15:01:42;3.30;;;1.20;;
9974;SDS011;5028;50.974;4.968;2023-01-08T15:04:18;3.63;;;1.40;;
9974;SDS011;5028;50.974;4.968;2023-01-08T15:06:48;3.33;;;1.40;;
9974;SDS011;5028;50.974;4.968;2023-01-08T15:09:30;4.47;;;1.70;;
9974;SDS011;5028;50.974;4.968;2023-01-08T15:12:02;4.50;;;1.47;;
9974;SDS011;5028;50.974;4.968;2023-01-08T15:14:40;3.20;;;1.50;;
9974;SDS011;5028;50.974;4.968;2023-01-08T15:17:10;2.60;;;1.40;;
9974;SDS011;5028;50.974;4.968;2023-01-08T15:19:51;4.53;;;1.60;;
9974;SDS011;5028;50.974;4.968;2023-01-08T15:22:23;4.27;;;1.30;;
9974;SDS011;5028;50.974;4.968;2023-01-08T15:25:00;5.43;;;1.80;;
9974;SDS011;5028;50.974;4.968;2023-01-08T15:27:31;3.30;;;1.10;;
9974;SDS011;5028;50.974;4.968;2023-01-08T15:30:20;2.10;;;1.37;;
9974;SDS011;5028;50.974;4.968;2023-01-08T15:32:52;3.47;;;1.30;;
9974;SDS011;5028;50.974;4.968;2023-01-08T15:35:27;3.90;;;1.70;;
9974;SDS011;5028;50.974;4.968;2023-01-08T15:37:55;4.80;;;1.80;;
9974;SDS011;5028;50.974;4.968;2023-01-08T15:40:30;2.47;;;1.30;;
9974;SDS011;5028;50.974;4.968;2023-01-08T15:43:00;4.73;;;1.40;;
9974;SDS011;5028;50.974;4.968;2023-01-08T15:45:43;3.77;;;1.30;;
9974;SDS011;5028;50.974;4.968;2023-01-08T15:48:13;3.27;;;1.60;;
9974;SDS011;5028;50.974;4.968;2023-01-08T15:50:48;4.47;;;1.40;;
9974;SDS011;5028;50.974;4.968;2023-01-08T15:53:18;3.40;;;1.77;;
9974;SDS011;5028;50.974;4.968;2023-01-08T15:55:54;5.10;;;1.77;;
9974;SDS011;5028;50.974;4.968;2023-01-08T15:58:24;4.17;;;1.57;;
9974;SDS011;5028;50.974;4.968;2023-01-08T16:00:59;3.80;;;1.60;;
9974;SDS011;5028;50.974;4.968;2023-01-08T16:03:27;4.70;;;1.40;;
9974;SDS011;5028;50.974;4.968;2023-01-08T16:06:10;4.60;;;1.40;;
9974;SDS011;5028;50.974;4.968;2023-01-08T16:08:51;3.63;;;1.30;;
9974;SDS011;5028;50.974;4.968;2023-01-08T16:11:29;4.10;;;1.40;;
9974;SDS011;5028;50.974;4.968;2023-01-08T16:13:59;4.10;;;1.67;;